Main page
METAR-TAF:

METAR-TAF

Airports :

Grenoble, France

Grenoble Alpes Isère Airport

latitude: 45-22N, longitude: 005-20E, elevation: 384 m

Current weather observation

The report was made 29 minutes ago, at 21:00 UTC
Wind 5 kt from the East/Southeast
Temperature 3°C
Humidity 87%
Pressure 1029 hPa
Visibility 10 km or more
no clouds below 1500 m and no cumulonimbus

METAR: LFLS 232100Z AUTO 11005KT CAVOK 03/01 Q1029

Time: 22:29 (21:29 UTC)

Forecast

The report was made 7 hours and 29 minutes ago, at 14:00 UTC
Forecast valid from 23 at 15 UTC to 24 at 15 UTC
Wind 6 kt from the North/Northeast
Visibility 10 km or more
no clouds below 1500 m and no cumulonimbus
Becoming
from 23 at 17 UTC to 23 at 20 UTC
Wind 5 kt from the East
Probability 30% :
Temporary
from 24 at 00 UTC to 24 at 07 UTC
Visibility: 4000 m
Shallow fog
Becoming
from 24 at 09 UTC to 24 at 12 UTC
Wind 6 kt from the West/Southwest

TAF: LFLS 231400Z 2315/2415 02006KT CAVOK BECMG 2317/2320 09005KT PROB30 TEMPO 2400/2407 4000 MIFG BECMG 2409/2412 25006KT

Weather observations and forecasts of more than 4000 airports (METAR and TAF reports).

The available stations are represented by yellow and red dots on the map.

Hover mouse over dot to see the name of the station.

Then click to see weather observations and forecasts.

To change the map : click on the green buttons with a black cross to zoom in, on the green button with a dash to zoom out, or on the green arrows for adjacent maps.


METAR-TAF: